sensor_id;sensor_type;location;lat;lon;timestamp;P1;durP1;ratioP1;P2;durP2;ratioP2
54823;SDS011;40724;53.196;5.980;2022-11-20T00:01:06;13.02;;;9.70;;
54823;SDS011;40724;53.196;5.980;2022-11-20T00:03:33;14.68;;;9.77;;
54823;SDS011;40724;53.196;5.980;2022-11-20T00:06:00;17.40;;;9.95;;
54823;SDS011;40724;53.196;5.980;2022-11-20T00:08:26;14.57;;;9.27;;
54823;SDS011;40724;53.196;5.980;2022-11-20T00:10:52;13.45;;;10.73;;
54823;SDS011;40724;53.196;5.980;2022-11-20T00:13:18;12.65;;;7.88;;
54823;SDS011;40724;53.196;5.980;2022-11-20T00:15:44;17.35;;;9.48;;
54823;SDS011;40724;53.196;5.980;2022-11-20T00:18:10;15.90;;;9.93;;
54823;SDS011;40724;53.196;5.980;2022-11-20T00:20:36;16.10;;;9.38;;
54823;SDS011;40724;53.196;5.980;2022-11-20T00:23:02;15.10;;;8.95;;
54823;SDS011;40724;53.196;5.980;2022-11-20T00:25:29;15.38;;;9.65;;
54823;SDS011;40724;53.196;5.980;2022-11-20T00:27:55;12.20;;;8.38;;
54823;SDS011;40724;53.196;5.980;2022-11-20T00:30:21;14.80;;;9.70;;
54823;SDS011;40724;53.196;5.980;2022-11-20T00:32:47;15.98;;;9.38;;
54823;SDS011;40724;53.196;5.980;2022-11-20T00:35:13;14.88;;;9.90;;
54823;SDS011;40724;53.196;5.980;2022-11-20T00:37:40;14.50;;;9.20;;
54823;SDS011;40724;53.196;5.980;2022-11-20T00:40:06;17.27;;;10.27;;
54823;SDS011;40724;53.196;5.980;2022-11-20T00:42:32;13.57;;;8.52;;
54823;SDS011;40724;53.196;5.980;2022-11-20T00:44:59;17.30;;;10.07;;
54823;SDS011;40724;53.196;5.980;2022-11-20T00:47:25;14.82;;;9.73;;
54823;SDS011;40724;53.196;5.980;2022-11-20T00:49:51;13.13;;;8.95;;
54823;SDS011;40724;53.196;5.980;2022-11-20T00:52:17;16.02;;;9.27;;
54823;SDS011;40724;53.196;5.980;2022-11-20T00:54:43;13.18;;;8.32;;
54823;SDS011;40724;53.196;5.980;2022-11-20T00:57:09;12.82;;;9.57;;
54823;SDS011;40724;53.196;5.980;2022-11-20T00:59:35;13.23;;;9.20;;
54823;SDS011;40724;53.196;5.980;2022-11-20T01:02:01;13.82;;;9.35;;
54823;SDS011;40724;53.196;5.980;2022-11-20T01:04:27;13.55;;;9.10;;
54823;SDS011;40724;53.196;5.980;2022-11-20T01:06:54;12.57;;;8.70;;
54823;SDS011;40724;53.196;5.980;2022-11-20T01:09:20;16.05;;;9.48;;
54823;SDS011;40724;53.196;5.980;2022-11-20T01:11:46;14.38;;;9.02;;
54823;SDS011;40724;53.196;5.980;2022-11-20T01:14:13;15.70;;;8.32;;
54823;SDS011;40724;53.196;5.980;2022-11-20T01:16:41;13.23;;;8.38;;
54823;SDS011;40724;53.196;5.980;2022-11-20T01:19:10;16.33;;;10.93;;
54823;SDS011;40724;53.196;5.980;2022-11-20T01:21:37;12.40;;;7.97;;
54823;SDS011;40724;53.196;5.980;2022-11-20T01:24:05;14.25;;;8.75;;
54823;SDS011;40724;53.196;5.980;2022-11-20T01:26:33;11.98;;;8.35;;
54823;SDS011;40724;53.196;5.980;2022-11-20T01:29:00;13.10;;;8.82;;
54823;SDS011;40724;53.196;5.980;2022-11-20T01:31:30;13.65;;;8.52;;
54823;SDS011;40724;53.196;5.980;2022-11-20T01:33:57;13.00;;;8.63;;
54823;SDS011;40724;53.196;5.980;2022-11-20T01:36:24;16.83;;;10.82;;
54823;SDS011;40724;53.196;5.980;2022-11-20T01:38:51;12.70;;;8.32;;
54823;SDS011;40724;53.196;5.980;2022-11-20T01:41:18;13.13;;;8.73;;
54823;SDS011;40724;53.196;5.980;2022-11-20T01:44:03;15.23;;;9.40;;
54823;SDS011;40724;53.196;5.980;2022-11-20T01:46:33;13.50;;;7.85;;
54823;SDS011;40724;53.196;5.980;2022-11-20T01:53:53;15.73;;;9.55;;
54823;SDS011;40724;53.196;5.980;2022-11-20T01:56:20;13.93;;;8.35;;
54823;SDS011;40724;53.196;5.980;2022-11-20T01:58:48;16.17;;;9.45;;
54823;SDS011;40724;53.196;5.980;2022-11-20T02:01:15;13.18;;;8.50;;
54823;SDS011;40724;53.196;5.980;2022-11-20T02:03:41;13.40;;;8.02;;
54823;SDS011;40724;53.196;5.980;2022-11-20T02:06:14;14.73;;;9.38;;
54823;SDS011;40724;53.196;5.980;2022-11-20T02:08:42;14.07;;;8.45;;
54823;SDS011;40724;53.196;5.980;2022-11-20T02:11:09;12.90;;;8.23;;
54823;SDS011;40724;53.196;5.980;2022-11-20T02:13:35;13.30;;;8.75;;
54823;SDS011;40724;53.196;5.980;2022-11-20T02:16:14;13.32;;;8.43;;
54823;SDS011;40724;53.196;5.980;2022-11-20T02:18:42;13.82;;;8.63;;
54823;SDS011;40724;53.196;5.980;2022-11-20T02:23:56;16.75;;;9.57;;
54823;SDS011;40724;53.196;5.980;2022-11-20T02:26:22;12.82;;;8.13;;
54823;SDS011;40724;53.196;5.980;2022-11-20T02:28:49;16.42;;;9.55;;
54823;SDS011;40724;53.196;5.980;2022-11-20T02:31:16;12.45;;;8.35;;
54823;SDS011;40724;53.196;5.980;2022-11-20T02:33:42;12.00;;;8.45;;
54823;SDS011;40724;53.196;5.980;2022-11-20T02:36:09;12.27;;;8.57;;
54823;SDS011;40724;53.196;5.980;2022-11-20T02:38:36;12.57;;;8.60;;
54823;SDS011;40724;53.196;5.980;2022-11-20T02:41:03;17.67;;;10.02;;
54823;SDS011;40724;53.196;5.980;2022-11-20T02:43:29;13.93;;;9.32;;
54823;SDS011;40724;53.196;5.980;2022-11-20T02:45:55;13.77;;;9.13;;
54823;SDS011;40724;53.196;5.980;2022-11-20T02:48:21;15.05;;;9.23;;
54823;SDS011;40724;53.196;5.980;2022-11-20T02:50:47;12.55;;;8.55;;
54823;SDS011;40724;53.196;5.980;2022-11-20T02:53:13;12.13;;;7.45;;
54823;SDS011;40724;53.196;5.980;2022-11-20T02:55:40;16.02;;;9.98;;
54823;SDS011;40724;53.196;5.980;2022-11-20T02:58:06;16.48;;;9.02;;
54823;SDS011;40724;53.196;5.980;2022-11-20T03:00:32;15.23;;;9.50;;
54823;SDS011;40724;53.196;5.980;2022-11-20T03:02:58;12.52;;;8.40;;
54823;SDS011;40724;53.196;5.980;2022-11-20T03:05:24;11.10;;;7.57;;
54823;SDS011;40724;53.196;5.980;2022-11-20T03:07:50;18.60;;;9.48;;
54823;SDS011;40724;53.196;5.980;2022-11-20T03:10:16;13.43;;;8.15;;
54823;SDS011;40724;53.196;5.980;2022-11-20T03:12:43;14.10;;;8.43;;
54823;SDS011;40724;53.196;5.980;2022-11-20T03:15:09;13.02;;;8.73;;
54823;SDS011;40724;53.196;5.980;2022-11-20T03:17:35;13.95;;;8.23;;
54823;SDS011;40724;53.196;5.980;2022-11-20T03:20:01;11.35;;;7.57;;
54823;SDS011;40724;53.196;5.980;2022-11-20T03:22:31;11.80;;;8.13;;
54823;SDS011;40724;53.196;5.980;2022-11-20T03:24:57;11.05;;;7.65;;
54823;SDS011;40724;53.196;5.980;2022-11-20T03:27:23;11.95;;;7.85;;
54823;SDS011;40724;53.196;5.980;2022-11-20T03:29:49;11.05;;;7.82;;
54823;SDS011;40724;53.196;5.980;2022-11-20T03:32:15;11.77;;;7.35;;
54823;SDS011;40724;53.196;5.980;2022-11-20T03:34:41;12.15;;;8.07;;
54823;SDS011;40724;53.196;5.980;2022-11-20T03:37:07;13.15;;;7.90;;
54823;SDS011;40724;53.196;5.980;2022-11-20T03:39:33;11.23;;;7.07;;
54823;SDS011;40724;53.196;5.980;2022-11-20T03:41:59;10.77;;;7.75;;
54823;SDS011;40724;53.196;5.980;2022-11-20T03:44:26;11.70;;;7.35;;
54823;SDS011;40724;53.196;5.980;2022-11-20T03:46:52;10.30;;;7.50;;
54823;SDS011;40724;53.196;5.980;2022-11-20T03:49:18;11.88;;;7.85;;
54823;SDS011;40724;53.196;5.980;2022-11-20T03:51:44;12.07;;;8.13;;
54823;SDS011;40724;53.196;5.980;2022-11-20T03:54:10;13.65;;;7.75;;
54823;SDS011;40724;53.196;5.980;2022-11-20T03:56:37;12.20;;;8.65;;
54823;SDS011;40724;53.196;5.980;2022-11-20T03:59:04;14.27;;;8.40;;
54823;SDS011;40724;53.196;5.980;2022-11-20T04:01:32;11.77;;;7.38;;
54823;SDS011;40724;53.196;5.980;2022-11-20T04:03:58;13.63;;;8.20;;
54823;SDS011;40724;53.196;5.980;2022-11-20T04:06:27;11.88;;;7.38;;
54823;SDS011;40724;53.196;5.980;2022-11-20T04:08:54;12.10;;;7.50;;
54823;SDS011;40724;53.196;5.980;2022-11-20T04:11:27;10.80;;;8.35;;
54823;SDS011;40724;53.196;5.980;2022-11-20T04:13:55;13.60;;;8.45;;
54823;SDS011;40724;53.196;5.980;2022-11-20T04:16:22;11.02;;;7.40;;
54823;SDS011;40724;53.196;5.980;2022-11-20T04:18:55;12.07;;;8.02;;
54823;SDS011;40724;53.196;5.980;2022-11-20T04:23:47;10.73;;;7.18;;
54823;SDS011;40724;53.196;5.980;2022-11-20T04:26:14;11.45;;;8.05;;
54823;SDS011;40724;53.196;5.980;2022-11-20T04:28:40;13.05;;;8.45;;
54823;SDS011;40724;53.196;5.980;2022-11-20T04:31:07;13.05;;;8.68;;
54823;SDS011;40724;53.196;5.980;2022-11-20T04:33:34;11.18;;;8.13;;
54823;SDS011;40724;53.196;5.980;2022-11-20T04:36:02;13.90;;;9.15;;
54823;SDS011;40724;53.196;5.980;2022-11-20T04:38:28;9.07;;;7.07;;
54823;SDS011;40724;53.196;5.980;2022-11-20T04:40:58;14.13;;;8.70;;
54823;SDS011;40724;53.196;5.980;2022-11-20T04:43:24;13.52;;;8.35;;
54823;SDS011;40724;53.196;5.980;2022-11-20T04:45:51;10.18;;;7.80;;
54823;SDS011;40724;53.196;5.980;2022-11-20T04:48:17;14.10;;;8.15;;
54823;SDS011;40724;53.196;5.980;2022-11-20T04:50:43;12.68;;;8.30;;
54823;SDS011;40724;53.196;5.980;2022-11-20T04:53:09;13.48;;;8.48;;
54823;SDS011;40724;53.196;5.980;2022-11-20T04:55:35;13.18;;;7.90;;
54823;SDS011;40724;53.196;5.980;2022-11-20T04:58:01;11.98;;;7.40;;
54823;SDS011;40724;53.196;5.980;2022-11-20T05:00:27;13.80;;;8.57;;
54823;SDS011;40724;53.196;5.980;2022-11-20T05:02:53;11.82;;;7.70;;
54823;SDS011;40724;53.196;5.980;2022-11-20T05:05:19;11.90;;;7.20;;
54823;SDS011;40724;53.196;5.980;2022-11-20T05:07:46;9.82;;;7.20;;
54823;SDS011;40724;53.196;5.980;2022-11-20T05:10:12;10.45;;;7.22;;
54823;SDS011;40724;53.196;5.980;2022-11-20T05:12:38;15.27;;;8.15;;
54823;SDS011;40724;53.196;5.980;2022-11-20T05:15:04;12.75;;;8.10;;
54823;SDS011;40724;53.196;5.980;2022-11-20T05:17:30;11.57;;;7.45;;
54823;SDS011;40724;53.196;5.980;2022-11-20T05:19:56;13.50;;;8.60;;
54823;SDS011;40724;53.196;5.980;2022-11-20T05:22:22;11.00;;;7.00;;
54823;SDS011;40724;53.196;5.980;2022-11-20T05:24:49;13.57;;;8.57;;
54823;SDS011;40724;53.196;5.980;2022-11-20T05:27:15;14.70;;;7.38;;
54823;SDS011;40724;53.196;5.980;2022-11-20T05:29:41;14.10;;;8.07;;
54823;SDS011;40724;53.196;5.980;2022-11-20T05:32:07;13.00;;;7.70;;
54823;SDS011;40724;53.196;5.980;2022-11-20T05:34:34;12.10;;;7.72;;
54823;SDS011;40724;53.196;5.980;2022-11-20T05:37:01;12.75;;;8.30;;
54823;SDS011;40724;53.196;5.980;2022-11-20T05:39:27;13.48;;;8.43;;
54823;SDS011;40724;53.196;5.980;2022-11-20T05:41:53;13.35;;;6.95;;
54823;SDS011;40724;53.196;5.980;2022-11-20T05:44:38;14.48;;;8.85;;
54823;SDS011;40724;53.196;5.980;2022-11-20T05:47:05;12.43;;;7.47;;
54823;SDS011;40724;53.196;5.980;2022-11-20T05:49:31;11.43;;;8.13;;
54823;SDS011;40724;53.196;5.980;2022-11-20T05:51:57;11.50;;;7.72;;
54823;SDS011;40724;53.196;5.980;2022-11-20T05:54:23;11.98;;;8.18;;
54823;SDS011;40724;53.196;5.980;2022-11-20T05:56:50;12.05;;;7.68;;
54823;SDS011;40724;53.196;5.980;2022-11-20T05:59:16;11.75;;;8.10;;
54823;SDS011;40724;53.196;5.980;2022-11-20T06:01:42;10.57;;;7.60;;
54823;SDS011;40724;53.196;5.980;2022-11-20T06:04:08;12.52;;;7.82;;
54823;SDS011;40724;53.196;5.980;2022-11-20T06:06:34;13.13;;;8.48;;
54823;SDS011;40724;53.196;5.980;2022-11-20T06:09:00;12.68;;;8.18;;
54823;SDS011;40724;53.196;5.980;2022-11-20T06:11:26;13.40;;;8.65;;
54823;SDS011;40724;53.196;5.980;2022-11-20T06:13:52;12.52;;;7.93;;
54823;SDS011;40724;53.196;5.980;2022-11-20T06:16:19;12.77;;;7.97;;
54823;SDS011;40724;53.196;5.980;2022-11-20T06:18:47;13.50;;;8.88;;
54823;SDS011;40724;53.196;5.980;2022-11-20T06:21:14;12.25;;;8.15;;
54823;SDS011;40724;53.196;5.980;2022-11-20T06:23:40;12.35;;;7.78;;
54823;SDS011;40724;53.196;5.980;2022-11-20T06:26:07;13.35;;;8.65;;
54823;SDS011;40724;53.196;5.980;2022-11-20T06:28:34;13.10;;;8.85;;
54823;SDS011;40724;53.196;5.980;2022-11-20T06:31:01;12.60;;;7.07;;
54823;SDS011;40724;53.196;5.980;2022-11-20T06:33:27;12.23;;;8.80;;
54823;SDS011;40724;53.196;5.980;2022-11-20T06:35:55;13.52;;;7.93;;
54823;SDS011;40724;53.196;5.980;2022-11-20T06:38:22;14.55;;;7.55;;
54823;SDS011;40724;53.196;5.980;2022-11-20T06:40:48;15.60;;;8.95;;
54823;SDS011;40724;53.196;5.980;2022-11-20T06:43:14;13.48;;;9.13;;
54823;SDS011;40724;53.196;5.980;2022-11-20T06:45:40;14.25;;;8.57;;
54823;SDS011;40724;53.196;5.980;2022-11-20T06:48:06;13.65;;;8.40;;
54823;SDS011;40724;53.196;5.980;2022-11-20T06:50:33;12.60;;;8.90;;
54823;SDS011;40724;53.196;5.980;2022-11-20T06:53:02;13.95;;;8.70;;
54823;SDS011;40724;53.196;5.980;2022-11-20T06:55:29;12.00;;;7.90;;
54823;SDS011;40724;53.196;5.980;2022-11-20T06:57:55;13.32;;;9.05;;
54823;SDS011;40724;53.196;5.980;2022-11-20T07:00:21;11.90;;;8.35;;
54823;SDS011;40724;53.196;5.980;2022-11-20T07:02:47;14.43;;;9.25;;
54823;SDS011;40724;53.196;5.980;2022-11-20T07:05:14;15.02;;;8.48;;
54823;SDS011;40724;53.196;5.980;2022-11-20T07:07:40;13.88;;;9.18;;
54823;SDS011;40724;53.196;5.980;2022-11-20T07:10:06;13.45;;;7.85;;
54823;SDS011;40724;53.196;5.980;2022-11-20T07:12:32;14.60;;;9.13;;
54823;SDS011;40724;53.196;5.980;2022-11-20T07:14:58;17.13;;;9.68;;
54823;SDS011;40724;53.196;5.980;2022-11-20T07:17:24;14.90;;;9.20;;
54823;SDS011;40724;53.196;5.980;2022-11-20T07:19:51;14.13;;;8.80;;
54823;SDS011;40724;53.196;5.980;2022-11-20T07:22:17;13.95;;;8.80;;
54823;SDS011;40724;53.196;5.980;2022-11-20T07:24:43;13.43;;;9.38;;
54823;SDS011;40724;53.196;5.980;2022-11-20T07:27:09;14.02;;;8.98;;
54823;SDS011;40724;53.196;5.980;2022-11-20T07:29:35;11.35;;;8.25;;
54823;SDS011;40724;53.196;5.980;2022-11-20T07:32:01;14.43;;;9.43;;
54823;SDS011;40724;53.196;5.980;2022-11-20T07:34:27;15.20;;;9.55;;
54823;SDS011;40724;53.196;5.980;2022-11-20T07:36:53;15.52;;;9.60;;
54823;SDS011;40724;53.196;5.980;2022-11-20T07:39:19;14.52;;;9.65;;
54823;SDS011;40724;53.196;5.980;2022-11-20T07:41:45;17.63;;;10.93;;
54823;SDS011;40724;53.196;5.980;2022-11-20T07:44:12;12.52;;;9.20;;
54823;SDS011;40724;53.196;5.980;2022-11-20T07:46:38;16.52;;;9.02;;
54823;SDS011;40724;53.196;5.980;2022-11-20T07:49:04;16.83;;;9.88;;
54823;SDS011;40724;53.196;5.980;2022-11-20T07:51:30;14.35;;;9.00;;
54823;SDS011;40724;53.196;5.980;2022-11-20T07:53:56;13.75;;;9.60;;
54823;SDS011;40724;53.196;5.980;2022-11-20T07:56:22;15.32;;;9.70;;
54823;SDS011;40724;53.196;5.980;2022-11-20T07:58:48;14.60;;;10.43;;
54823;SDS011;40724;53.196;5.980;2022-11-20T08:01:14;13.88;;;9.75;;
54823;SDS011;40724;53.196;5.980;2022-11-20T08:03:40;14.32;;;9.50;;
54823;SDS011;40724;53.196;5.980;2022-11-20T08:06:07;15.98;;;9.95;;
54823;SDS011;40724;53.196;5.980;2022-11-20T08:08:33;13.00;;;10.02;;
54823;SDS011;40724;53.196;5.980;2022-11-20T08:11:00;15.40;;;9.73;;
54823;SDS011;40724;53.196;5.980;2022-11-20T08:13:44;15.45;;;9.30;;
54823;SDS011;40724;53.196;5.980;2022-11-20T08:16:29;12.57;;;8.65;;
54823;SDS011;40724;53.196;5.980;2022-11-20T08:18:55;14.95;;;9.80;;
54823;SDS011;40724;53.196;5.980;2022-11-20T08:21:22;13.65;;;9.05;;
54823;SDS011;40724;53.196;5.980;2022-11-20T08:23:49;14.05;;;9.13;;
54823;SDS011;40724;53.196;5.980;2022-11-20T08:26:15;14.73;;;9.68;;
54823;SDS011;40724;53.196;5.980;2022-11-20T08:28:41;17.10;;;11.00;;
54823;SDS011;40724;53.196;5.980;2022-11-20T08:31:07;16.08;;;9.65;;
54823;SDS011;40724;53.196;5.980;2022-11-20T08:33:34;13.25;;;9.50;;
54823;SDS011;40724;53.196;5.980;2022-11-20T08:36:04;16.48;;;8.05;;
54823;SDS011;40724;53.196;5.980;2022-11-20T08:38:30;13.30;;;8.82;;
54823;SDS011;40724;53.196;5.980;2022-11-20T08:40:57;13.68;;;10.40;;
54823;SDS011;40724;53.196;5.980;2022-11-20T08:43:42;16.02;;;9.27;;
54823;SDS011;40724;53.196;5.980;2022-11-20T08:46:08;16.75;;;9.05;;
54823;SDS011;40724;53.196;5.980;2022-11-20T08:48:34;14.85;;;9.07;;
54823;SDS011;40724;53.196;5.980;2022-11-20T08:51:00;13.85;;;9.05;;
54823;SDS011;40724;53.196;5.980;2022-11-20T08:53:27;20.33;;;9.77;;
54823;SDS011;40724;53.196;5.980;2022-11-20T08:55:53;15.52;;;10.40;;
54823;SDS011;40724;53.196;5.980;2022-11-20T08:58:19;13.18;;;9.05;;
54823;SDS011;40724;53.196;5.980;2022-11-20T09:00:45;15.85;;;8.90;;
54823;SDS011;40724;53.196;5.980;2022-11-20T09:03:11;10.25;;;8.60;;
54823;SDS011;40724;53.196;5.980;2022-11-20T09:05:39;13.73;;;8.98;;
54823;SDS011;40724;53.196;5.980;2022-11-20T09:08:05;14.65;;;8.95;;
54823;SDS011;40724;53.196;5.980;2022-11-20T09:10:31;11.95;;;8.25;;
54823;SDS011;40724;53.196;5.980;2022-11-20T09:12:57;12.18;;;8.68;;
54823;SDS011;40724;53.196;5.980;2022-11-20T09:15:24;13.35;;;8.52;;
54823;SDS011;40724;53.196;5.980;2022-11-20T09:17:54;17.50;;;9.77;;
54823;SDS011;40724;53.196;5.980;2022-11-20T09:20:21;14.68;;;9.50;;
54823;SDS011;40724;53.196;5.980;2022-11-20T09:22:47;13.52;;;9.45;;
54823;SDS011;40724;53.196;5.980;2022-11-20T09:25:13;12.57;;;9.35;;
54823;SDS011;40724;53.196;5.980;2022-11-20T09:27:39;15.15;;;9.40;;
54823;SDS011;40724;53.196;5.980;2022-11-20T09:30:08;12.35;;;8.20;;
54823;SDS011;40724;53.196;5.980;2022-11-20T09:32:35;11.60;;;8.95;;
54823;SDS011;40724;53.196;5.980;2022-11-20T09:35:01;11.15;;;8.18;;
54823;SDS011;40724;53.196;5.980;2022-11-20T09:37:27;13.98;;;8.65;;
54823;SDS011;40724;53.196;5.980;2022-11-20T09:39:54;14.32;;;10.20;;
54823;SDS011;40724;53.196;5.980;2022-11-20T09:42:23;16.00;;;8.63;;
54823;SDS011;40724;53.196;5.980;2022-11-20T09:45:11;15.30;;;10.40;;
54823;SDS011;40724;53.196;5.980;2022-11-20T09:47:46;15.77;;;9.02;;
54823;SDS011;40724;53.196;5.980;2022-11-20T09:55:19;16.75;;;10.30;;
54823;SDS011;40724;53.196;5.980;2022-11-20T09:57:47;11.27;;;8.90;;
54823;SDS011;40724;53.196;5.980;2022-11-20T10:00:14;12.75;;;8.43;;
54823;SDS011;40724;53.196;5.980;2022-11-20T10:02:42;15.23;;;9.13;;
54823;SDS011;40724;53.196;5.980;2022-11-20T10:10:17;13.02;;;8.77;;
54823;SDS011;40724;53.196;5.980;2022-11-20T10:15:33;12.35;;;7.10;;
54823;SDS011;40724;53.196;5.980;2022-11-20T10:20:28;16.05;;;8.65;;
54823;SDS011;40724;53.196;5.980;2022-11-20T10:25:34;13.20;;;8.07;;
54823;SDS011;40724;53.196;5.980;2022-11-20T10:31:09;12.25;;;8.05;;
54823;SDS011;40724;53.196;5.980;2022-11-20T10:33:39;10.38;;;7.38;;
54823;SDS011;40724;53.196;5.980;2022-11-20T10:38:46;8.93;;;6.68;;
54823;SDS011;40724;53.196;5.980;2022-11-20T10:41:20;13.32;;;7.60;;
54823;SDS011;40724;53.196;5.980;2022-11-20T10:44:12;8.75;;;6.75;;
54823;SDS011;40724;53.196;5.980;2022-11-20T10:46:40;11.45;;;7.85;;
54823;SDS011;40724;53.196;5.980;2022-11-20T10:49:15;13.50;;;6.97;;
54823;SDS011;40724;53.196;5.980;2022-11-20T10:54:19;8.68;;;5.70;;
54823;SDS011;40724;53.196;5.980;2022-11-20T10:56:50;9.32;;;5.18;;
54823;SDS011;40724;53.196;5.980;2022-11-20T11:01:51;9.30;;;4.65;;
54823;SDS011;40724;53.196;5.980;2022-11-20T11:06:47;7.95;;;4.45;;
54823;SDS011;40724;53.196;5.980;2022-11-20T11:09:19;7.30;;;5.05;;
54823;SDS011;40724;53.196;5.980;2022-11-20T11:11:48;7.45;;;4.60;;
54823;SDS011;40724;53.196;5.980;2022-11-20T11:14:15;8.48;;;3.85;;
54823;SDS011;40724;53.196;5.980;2022-11-20T11:16:57;6.03;;;4.55;;
54823;SDS011;40724;53.196;5.980;2022-11-20T11:19:24;6.22;;;3.95;;
54823;SDS011;40724;53.196;5.980;2022-11-20T11:21:54;7.90;;;4.95;;
54823;SDS011;40724;53.196;5.980;2022-11-20T11:24:25;7.78;;;4.53;;
54823;SDS011;40724;53.196;5.980;2022-11-20T11:27:01;6.75;;;4.70;;
54823;SDS011;40724;53.196;5.980;2022-11-20T11:29:32;10.10;;;5.25;;
54823;SDS011;40724;53.196;5.980;2022-11-20T11:32:11;8.00;;;4.75;;
54823;SDS011;40724;53.196;5.980;2022-11-20T11:34:37;8.00;;;4.63;;
54823;SDS011;40724;53.196;5.980;2022-11-20T11:37:03;8.05;;;5.55;;
54823;SDS011;40724;53.196;5.980;2022-11-20T11:39:31;8.85;;;5.90;;
54823;SDS011;40724;53.196;5.980;2022-11-20T11:41:59;7.25;;;4.70;;
54823;SDS011;40724;53.196;5.980;2022-11-20T11:47:26;8.70;;;6.05;;
54823;SDS011;40724;53.196;5.980;2022-11-20T11:55:09;6.80;;;4.32;;
54823;SDS011;40724;53.196;5.980;2022-11-20T11:57:47;7.82;;;5.20;;
54823;SDS011;40724;53.196;5.980;2022-11-20T12:00:16;5.85;;;3.72;;
54823;SDS011;40724;53.196;5.980;2022-11-20T12:05:29;8.65;;;5.15;;
54823;SDS011;40724;53.196;5.980;2022-11-20T12:10:23;7.00;;;4.15;;
54823;SDS011;40724;53.196;5.980;2022-11-20T12:13:18;8.32;;;5.25;;
54823;SDS011;40724;53.196;5.980;2022-11-20T12:15:46;9.50;;;4.72;;
54823;SDS011;40724;53.196;5.980;2022-11-20T12:18:19;7.07;;;4.93;;
54823;SDS011;40724;53.196;5.980;2022-11-20T12:21:33;6.97;;;4.88;;
54823;SDS011;40724;53.196;5.980;2022-11-20T12:34:27;6.97;;;4.13;;
54823;SDS011;40724;53.196;5.980;2022-11-20T12:39:43;8.13;;;4.88;;
54823;SDS011;40724;53.196;5.980;2022-11-20T12:42:16;6.40;;;4.78;;
54823;SDS011;40724;53.196;5.980;2022-11-20T12:47:41;7.88;;;4.40;;
54823;SDS011;40724;53.196;5.980;2022-11-20T12:50:28;6.60;;;4.50;;
54823;SDS011;40724;53.196;5.980;2022-11-20T13:00:54;8.02;;;5.55;;
54823;SDS011;40724;53.196;5.980;2022-11-20T13:06:04;7.13;;;4.70;;
54823;SDS011;40724;53.196;5.980;2022-11-20T13:08:35;7.13;;;4.47;;
54823;SDS011;40724;53.196;5.980;2022-11-20T13:16:26;7.63;;;4.80;;
54823;SDS011;40724;53.196;5.980;2022-11-20T13:18:55;6.63;;;4.38;;
54823;SDS011;40724;53.196;5.980;2022-11-20T13:21:23;7.45;;;4.05;;
54823;SDS011;40724;53.196;5.980;2022-11-20T13:24:04;6.70;;;4.07;;
54823;SDS011;40724;53.196;5.980;2022-11-20T13:26:30;7.25;;;3.90;;
54823;SDS011;40724;53.196;5.980;2022-11-20T13:29:09;5.65;;;4.03;;
54823;SDS011;40724;53.196;5.980;2022-11-20T13:31:36;8.48;;;4.93;;
54823;SDS011;40724;53.196;5.980;2022-11-20T13:34:05;7.75;;;4.82;;
54823;SDS011;40724;53.196;5.980;2022-11-20T13:36:32;6.28;;;4.47;;
54823;SDS011;40724;53.196;5.980;2022-11-20T13:39:00;10.70;;;4.97;;
54823;SDS011;40724;53.196;5.980;2022-11-20T13:41:33;9.02;;;5.95;;
54823;SDS011;40724;53.196;5.980;2022-11-20T13:46:40;8.30;;;4.50;;
54823;SDS011;40724;53.196;5.980;2022-11-20T13:49:29;6.13;;;4.78;;
54823;SDS011;40724;53.196;5.980;2022-11-20T13:51:57;9.90;;;5.07;;
54823;SDS011;40724;53.196;5.980;2022-11-20T14:02:43;6.82;;;5.03;;
54823;SDS011;40724;53.196;5.980;2022-11-20T14:05:22;7.97;;;4.93;;
54823;SDS011;40724;53.196;5.980;2022-11-20T14:07:49;11.02;;;5.88;;
54823;SDS011;40724;53.196;5.980;2022-11-20T14:10:20;6.88;;;4.57;;
54823;SDS011;40724;53.196;5.980;2022-11-20T14:12:46;9.20;;;4.50;;
54823;SDS011;40724;53.196;5.980;2022-11-20T14:15:34;7.03;;;4.82;;
54823;SDS011;40724;53.196;5.980;2022-11-20T14:17:59;8.43;;;5.35;;
54823;SDS011;40724;53.196;5.980;2022-11-20T14:20:26;7.65;;;4.82;;
54823;SDS011;40724;53.196;5.980;2022-11-20T14:22:55;6.65;;;5.20;;
54823;SDS011;40724;53.196;5.980;2022-11-20T14:25:22;6.93;;;4.55;;
54823;SDS011;40724;53.196;5.980;2022-11-20T14:28:01;8.05;;;5.90;;
54823;SDS011;40724;53.196;5.980;2022-11-20T14:30:38;7.68;;;5.47;;
54823;SDS011;40724;53.196;5.980;2022-11-20T14:33:12;8.85;;;5.13;;
54823;SDS011;40724;53.196;5.980;2022-11-20T14:35:40;6.85;;;4.75;;
54823;SDS011;40724;53.196;5.980;2022-11-20T14:38:09;8.25;;;5.63;;
54823;SDS011;40724;53.196;5.980;2022-11-20T14:40:38;8.40;;;5.38;;
54823;SDS011;40724;53.196;5.980;2022-11-20T14:45:43;8.68;;;5.30;;
54823;SDS011;40724;53.196;5.980;2022-11-20T14:48:10;8.52;;;5.25;;
54823;SDS011;40724;53.196;5.980;2022-11-20T14:50:37;8.40;;;4.90;;
54823;SDS011;40724;53.196;5.980;2022-11-20T14:53:04;8.90;;;4.63;;
54823;SDS011;40724;53.196;5.980;2022-11-20T14:55:31;8.27;;;5.35;;
54823;SDS011;40724;53.196;5.980;2022-11-20T14:58:02;8.10;;;5.43;;
54823;SDS011;40724;53.196;5.980;2022-11-20T15:00:30;8.95;;;5.22;;
54823;SDS011;40724;53.196;5.980;2022-11-20T15:02:56;7.78;;;4.90;;
54823;SDS011;40724;53.196;5.980;2022-11-20T15:05:24;8.00;;;5.47;;
54823;SDS011;40724;53.196;5.980;2022-11-20T15:07:52;8.40;;;5.55;;
54823;SDS011;40724;53.196;5.980;2022-11-20T15:10:29;8.13;;;4.68;;
54823;SDS011;40724;53.196;5.980;2022-11-20T15:13:05;8.27;;;5.07;;
54823;SDS011;40724;53.196;5.980;2022-11-20T15:18:12;7.95;;;4.75;;
54823;SDS011;40724;53.196;5.980;2022-11-20T15:20:40;8.95;;;5.90;;
54823;SDS011;40724;53.196;5.980;2022-11-20T15:23:10;9.80;;;5.75;;
54823;SDS011;40724;53.196;5.980;2022-11-20T15:25:37;8.77;;;5.50;;
54823;SDS011;40724;53.196;5.980;2022-11-20T15:28:04;7.75;;;5.85;;
54823;SDS011;40724;53.196;5.980;2022-11-20T15:30:34;6.75;;;5.43;;
54823;SDS011;40724;53.196;5.980;2022-11-20T15:33:00;7.95;;;5.07;;
54823;SDS011;40724;53.196;5.980;2022-11-20T15:35:26;9.68;;;6.95;;
54823;SDS011;40724;53.196;5.980;2022-11-20T15:37:52;7.80;;;6.07;;
54823;SDS011;40724;53.196;5.980;2022-11-20T15:40:19;8.98;;;5.13;;
54823;SDS011;40724;53.196;5.980;2022-11-20T15:42:45;10.38;;;5.72;;
54823;SDS011;40724;53.196;5.980;2022-11-20T15:45:28;8.60;;;6.10;;
54823;SDS011;40724;53.196;5.980;2022-11-20T15:47:54;9.32;;;5.90;;
54823;SDS011;40724;53.196;5.980;2022-11-20T15:50:21;7.72;;;5.88;;
54823;SDS011;40724;53.196;5.980;2022-11-20T15:52:47;10.00;;;6.90;;
54823;SDS011;40724;53.196;5.980;2022-11-20T15:55:13;9.02;;;6.22;;
54823;SDS011;40724;53.196;5.980;2022-11-20T15:57:39;13.77;;;8.18;;
54823;SDS011;40724;53.196;5.980;2022-11-20T16:00:07;9.30;;;6.90;;
54823;SDS011;40724;53.196;5.980;2022-11-20T16:02:33;9.80;;;6.90;;
54823;SDS011;40724;53.196;5.980;2022-11-20T16:04:59;7.93;;;6.00;;
54823;SDS011;40724;53.196;5.980;2022-11-20T16:07:26;11.07;;;7.07;;
54823;SDS011;40724;53.196;5.980;2022-11-20T16:09:52;10.55;;;7.75;;
54823;SDS011;40724;53.196;5.980;2022-11-20T16:12:19;12.98;;;7.65;;
54823;SDS011;40724;53.196;5.980;2022-11-20T16:15:04;9.77;;;6.82;;
54823;SDS011;40724;53.196;5.980;2022-11-20T16:17:49;8.02;;;5.70;;
54823;SDS011;40724;53.196;5.980;2022-11-20T16:20:16;7.88;;;5.57;;
54823;SDS011;40724;53.196;5.980;2022-11-20T16:22:42;11.68;;;6.05;;
54823;SDS011;40724;53.196;5.980;2022-11-20T16:25:08;9.07;;;6.20;;
54823;SDS011;40724;53.196;5.980;2022-11-20T16:27:34;8.15;;;5.47;;